Sacramento Mather Airport
KMHR : now visible

Airfield :











YOU CAN JOIN US ON...

 
LOGIN :

Register | Disclaimer

   EN    FR    IT 

 









Legend :    VFR   Marginal VFR   IFR   Intensive IFR   Very Intensive IFR
Visi :
Ceiling :
>= 8 km
>= 3000ft
5 to 8 km
1000 to 3000 ft
1500m to 5 km
500 to 1000 ft
800 to 1500m
200 to 500 ft
< 800m
< 200 ft
Symbols :   Thunderstorms  Fog  Heavy snow  Heavy precipitations  Wind > 20 kt






- Airport Elevation : 99 ft


KMHR - Sacramento Mather

CURRENT METAR :
  • 021745Z E20006G14KT 10SM FEW250 20/11 A2991

EXPIRED METARs :
  • 021735Z AUTO 19011KT 10SM CLR 19/11 A2992 RMK A01
  • 021715Z AUTO 20013G20KT 10SM CLR 19/11 A2992 RMK A01
  • 021655Z 22014KT 10SM FEW020 SCT250 18/11 A2992 RMK A01
  • 021645Z E23012G17KT 10SM FEW020 SCT250 18/11 A2992
  • 021635Z AUTO 22014KT 10SM SCT020 18/11 A2992 RMK A01
  • 021610Z AUTO 20013G19KT 10SM FEW019 17/11 A2992 RMK A01
  • 021555Z 20014G21KT 10SM SCT015 17/11 A2992 RMK A01
  • 021545Z E21016KT 10SM SCT015 17/11 A2992
  • 021530Z AUTO 24011G16KT 10SM CLR 16/11 A2992 RMK A01
  • 021515Z AUTO 22014KT 10SM CLR 16/11 A2991 RMK A01
  • 021450Z AUTO 22013KT 10SM CLR 15/11 A2991 RMK A01

TAF KMHR
Valid from the 02 at 18:00 until the 03 at 18:00 UTC


021743Z 0218/0318 19011G20KT P6SM SKC
FM022300 21015G22KT P6SM SKC
FM030600 17014G21KT P6SM FEW250
KZOA FIR / North America



MET'MAP, your aeronautical weather chart ! - Copyright ORBIFLY December 2007 - Disclaimer

ORBIFLY MET'MAP TEAM :

Programming & Development : Alexandra Zaïnal
Original concept : Baudouin d'Aumeries
Technical & hardware support : Manuel Goepfert
Assistance : Marc-Olivier Méhu




SOURCES & CREDITS :

   NOAA       Earth
Advisory